sensor_id;sensor_type;location;lat;lon;timestamp;temperature;humidity
47861;HTU21D;33620;52.340;5.984;2023-05-24T00:02:07;10.18;72.00
47861;HTU21D;33620;52.340;5.984;2023-05-24T00:04:33;10.13;72.22
47861;HTU21D;33620;52.340;5.984;2023-05-24T00:06:59;10.12;72.25
47861;HTU21D;33620;52.340;5.984;2023-05-24T00:09:28;10.14;72.13
47861;HTU21D;33620;52.340;5.984;2023-05-24T00:11:53;10.19;71.90
47861;HTU21D;33620;52.340;5.984;2023-05-24T00:14:19;10.19;71.81
47861;HTU21D;33620;52.340;5.984;2023-05-24T00:16:45;10.20;71.63
47861;HTU21D;33620;52.340;5.984;2023-05-24T00:19:10;10.16;71.46
47861;HTU21D;33620;52.340;5.984;2023-05-24T00:21:35;10.09;71.65
47861;HTU21D;33620;52.340;5.984;2023-05-24T00:24:01;10.01;71.99
47861;HTU21D;33620;52.340;5.984;2023-05-24T00:26:26;10.01;72.25
47861;HTU21D;33620;52.340;5.984;2023-05-24T00:28:52;10.01;72.08
47861;HTU21D;33620;52.340;5.984;2023-05-24T00:31:17;10.04;71.98
47861;HTU21D;33620;52.340;5.984;2023-05-24T00:33:43;10.03;71.74
47861;HTU21D;33620;52.340;5.984;2023-05-24T00:36:08;9.99;71.78
47861;HTU21D;33620;52.340;5.984;2023-05-24T00:38:34;9.93;71.77
47861;HTU21D;33620;52.340;5.984;2023-05-24T00:40:59;9.89;72.03
47861;HTU21D;33620;52.340;5.984;2023-05-24T00:43:25;9.94;71.92
47861;HTU21D;33620;52.340;5.984;2023-05-24T00:48:34;9.98;71.67
47861;HTU21D;33620;52.340;5.984;2023-05-24T00:50:59;9.97;71.55
47861;HTU21D;33620;52.340;5.984;2023-05-24T00:53:25;9.92;71.62
47861;HTU21D;33620;52.340;5.984;2023-05-24T00:55:50;9.83;72.09
47861;HTU21D;33620;52.340;5.984;2023-05-24T00:58:15;9.81;72.07
47861;HTU21D;33620;52.340;5.984;2023-05-24T01:00:42;9.76;71.93
47861;HTU21D;33620;52.340;5.984;2023-05-24T01:03:08;9.59;71.91
47861;HTU21D;33620;52.340;5.984;2023-05-24T01:05:34;9.45;72.92
47861;HTU21D;33620;52.340;5.984;2023-05-24T01:08:11;9.51;72.87
47861;HTU21D;33620;52.340;5.984;2023-05-24T01:10:50;9.57;72.45
47861;HTU21D;33620;52.340;5.984;2023-05-24T01:15:52;9.54;72.52
47861;HTU21D;33620;52.340;5.984;2023-05-24T01:18:26;9.54;72.15
47861;HTU21D;33620;52.340;5.984;2023-05-24T01:27:08;9.04;73.16
47861;HTU21D;33620;52.340;5.984;2023-05-24T01:29:36;8.95;73.30
47861;HTU21D;33620;52.340;5.984;2023-05-24T01:32:02;8.86;73.66
47861;HTU21D;33620;52.340;5.984;2023-05-24T01:34:27;8.87;73.28
47861;HTU21D;33620;52.340;5.984;2023-05-24T01:36:53;8.82;73.55
47861;HTU21D;33620;52.340;5.984;2023-05-24T01:39:19;8.79;73.73
47861;HTU21D;33620;52.340;5.984;2023-05-24T01:45:03;8.83;73.90
47861;HTU21D;33620;52.340;5.984;2023-05-24T01:47:57;8.90;73.71
47861;HTU21D;33620;52.340;5.984;2023-05-24T01:50:36;8.93;73.70
47861;HTU21D;33620;52.340;5.984;2023-05-24T01:53:06;8.91;73.81
47861;HTU21D;33620;52.340;5.984;2023-05-24T01:55:33;8.96;74.01
47861;HTU21D;33620;52.340;5.984;2023-05-24T01:58:02;9.04;73.83
47861;HTU21D;33620;52.340;5.984;2023-05-24T02:00:29;9.05;73.90
47861;HTU21D;33620;52.340;5.984;2023-05-24T02:02:56;9.07;73.83
47861;HTU21D;33620;52.340;5.984;2023-05-24T02:05:21;9.08;73.93
47861;HTU21D;33620;52.340;5.984;2023-05-24T02:07:47;9.07;73.99
47861;HTU21D;33620;52.340;5.984;2023-05-24T02:10:12;9.07;74.43
47861;HTU21D;33620;52.340;5.984;2023-05-24T02:12:38;9.10;74.35
47861;HTU21D;33620;52.340;5.984;2023-05-24T02:15:03;9.08;74.31
47861;HTU21D;33620;52.340;5.984;2023-05-24T02:17:30;9.03;75.29
47861;HTU21D;33620;52.340;5.984;2023-05-24T02:19:58;9.02;75.16
47861;HTU21D;33620;52.340;5.984;2023-05-24T02:22:24;9.00;75.59
47861;HTU21D;33620;52.340;5.984;2023-05-24T02:24:50;9.01;75.53
47861;HTU21D;33620;52.340;5.984;2023-05-24T02:27:15;8.98;76.04
47861;HTU21D;33620;52.340;5.984;2023-05-24T02:29:40;9.05;75.86
47861;HTU21D;33620;52.340;5.984;2023-05-24T02:32:06;9.03;75.92
47861;HTU21D;33620;52.340;5.984;2023-05-24T02:34:31;9.05;76.30
47861;HTU21D;33620;52.340;5.984;2023-05-24T02:36:57;9.09;75.86
47861;HTU21D;33620;52.340;5.984;2023-05-24T02:39:23;9.11;75.93
47861;HTU21D;33620;52.340;5.984;2023-05-24T02:41:48;9.07;75.79
47861;HTU21D;33620;52.340;5.984;2023-05-24T02:44:13;9.03;75.63
47861;HTU21D;33620;52.340;5.984;2023-05-24T02:46:39;9.04;76.28
47861;HTU21D;33620;52.340;5.984;2023-05-24T02:49:04;9.08;75.78
47861;HTU21D;33620;52.340;5.984;2023-05-24T02:51:30;9.12;75.99
47861;HTU21D;33620;52.340;5.984;2023-05-24T02:53:57;9.15;75.70
47861;HTU21D;33620;52.340;5.984;2023-05-24T02:56:22;9.17;75.95
47861;HTU21D;33620;52.340;5.984;2023-05-24T02:58:48;9.23;75.83
47861;HTU21D;33620;52.340;5.984;2023-05-24T03:01:13;9.16;75.79
47861;HTU21D;33620;52.340;5.984;2023-05-24T03:03:39;9.07;76.24
47861;HTU21D;33620;52.340;5.984;2023-05-24T03:06:05;9.04;76.62
47861;HTU21D;33620;52.340;5.984;2023-05-24T03:08:32;8.98;77.00
47861;HTU21D;33620;52.340;5.984;2023-05-24T03:10:57;8.94;77.54
47861;HTU21D;33620;52.340;5.984;2023-05-24T03:13:22;8.94;77.82
47861;HTU21D;33620;52.340;5.984;2023-05-24T03:15:48;8.94;77.78
47861;HTU21D;33620;52.340;5.984;2023-05-24T03:18:13;9.01;77.77
47861;HTU21D;33620;52.340;5.984;2023-05-24T03:20:38;9.03;77.85
47861;HTU21D;33620;52.340;5.984;2023-05-24T03:23:04;9.06;77.98
47861;HTU21D;33620;52.340;5.984;2023-05-24T03:25:29;9.09;77.87
47861;HTU21D;33620;52.340;5.984;2023-05-24T03:27:55;9.14;78.08
47861;HTU21D;33620;52.340;5.984;2023-05-24T03:30:20;9.20;77.97
47861;HTU21D;33620;52.340;5.984;2023-05-24T03:32:45;9.24;77.91
47861;HTU21D;33620;52.340;5.984;2023-05-24T03:35:11;9.29;77.88
47861;HTU21D;33620;52.340;5.984;2023-05-24T03:37:37;9.33;77.66
47861;HTU21D;33620;52.340;5.984;2023-05-24T03:40:02;9.37;77.76
47861;HTU21D;33620;52.340;5.984;2023-05-24T03:42:29;9.39;77.74
47861;HTU21D;33620;52.340;5.984;2023-05-24T03:44:54;9.42;77.58
47861;HTU21D;33620;52.340;5.984;2023-05-24T03:47:19;9.46;77.72
47861;HTU21D;33620;52.340;5.984;2023-05-24T03:49:45;9.49;77.69
47861;HTU21D;33620;52.340;5.984;2023-05-24T03:52:11;9.51;77.60
47861;HTU21D;33620;52.340;5.984;2023-05-24T03:54:36;9.50;77.65
47861;HTU21D;33620;52.340;5.984;2023-05-24T03:57:02;9.49;77.73
47861;HTU21D;33620;52.340;5.984;2023-05-24T03:59:27;9.49;77.87
47861;HTU21D;33620;52.340;5.984;2023-05-24T04:01:55;9.50;77.92
47861;HTU21D;33620;52.340;5.984;2023-05-24T04:04:20;9.50;78.08
47861;HTU21D;33620;52.340;5.984;2023-05-24T04:06:45;9.54;78.11
47861;HTU21D;33620;52.340;5.984;2023-05-24T04:09:12;9.54;78.44
47861;HTU21D;33620;52.340;5.984;2023-05-24T04:11:37;9.56;78.35
47861;HTU21D;33620;52.340;5.984;2023-05-24T04:14:02;9.55;78.41
47861;HTU21D;33620;52.340;5.984;2023-05-24T04:16:28;9.53;78.61
47861;HTU21D;33620;52.340;5.984;2023-05-24T04:18:54;9.51;79.06
47861;HTU21D;33620;52.340;5.984;2023-05-24T04:21:19;9.52;79.12
47861;HTU21D;33620;52.340;5.984;2023-05-24T04:23:45;9.51;79.50
47861;HTU21D;33620;52.340;5.984;2023-05-24T04:26:11;9.56;79.91
47861;HTU21D;33620;52.340;5.984;2023-05-24T04:28:36;9.63;79.87
47861;HTU21D;33620;52.340;5.984;2023-05-24T04:31:05;9.70;79.62
47861;HTU21D;33620;52.340;5.984;2023-05-24T04:33:31;9.71;79.68
47861;HTU21D;33620;52.340;5.984;2023-05-24T04:35:57;9.69;79.98
47861;HTU21D;33620;52.340;5.984;2023-05-24T04:38:26;9.69;80.20
47861;HTU21D;33620;52.340;5.984;2023-05-24T04:40:54;9.68;80.55
47861;HTU21D;33620;52.340;5.984;2023-05-24T04:43:20;9.74;80.86
47861;HTU21D;33620;52.340;5.984;2023-05-24T04:45:46;9.80;80.72
47861;HTU21D;33620;52.340;5.984;2023-05-24T04:48:12;9.83;80.62
47861;HTU21D;33620;52.340;5.984;2023-05-24T04:50:37;9.82;80.69
47861;HTU21D;33620;52.340;5.984;2023-05-24T04:53:03;9.82;81.47
47861;HTU21D;33620;52.340;5.984;2023-05-24T04:55:28;9.93;81.23
47861;HTU21D;33620;52.340;5.984;2023-05-24T04:57:54;9.99;81.06
47861;HTU21D;33620;52.340;5.984;2023-05-24T05:00:19;10.05;81.12
47861;HTU21D;33620;52.340;5.984;2023-05-24T05:02:45;10.06;81.34
47861;HTU21D;33620;52.340;5.984;2023-05-24T05:05:11;10.06;81.65
47861;HTU21D;33620;52.340;5.984;2023-05-24T05:07:36;10.09;81.98
47861;HTU21D;33620;52.340;5.984;2023-05-24T05:10:03;10.20;81.84
47861;HTU21D;33620;52.340;5.984;2023-05-24T05:12:28;10.27;81.99
47861;HTU21D;33620;52.340;5.984;2023-05-24T05:14:54;10.33;81.93
47861;HTU21D;33620;52.340;5.984;2023-05-24T05:17:19;10.40;81.96
47861;HTU21D;33620;52.340;5.984;2023-05-24T05:19:45;10.42;82.25
47861;HTU21D;33620;52.340;5.984;2023-05-24T05:22:11;10.49;82.46
47861;HTU21D;33620;52.340;5.984;2023-05-24T05:24:36;10.57;82.58
47861;HTU21D;33620;52.340;5.984;2023-05-24T05:27:02;10.67;82.50
47861;HTU21D;33620;52.340;5.984;2023-05-24T05:29:27;10.77;82.21
47861;HTU21D;33620;52.340;5.984;2023-05-24T05:31:52;10.83;82.14
47861;HTU21D;33620;52.340;5.984;2023-05-24T05:34:18;10.96;82.01
47861;HTU21D;33620;52.340;5.984;2023-05-24T05:36:45;11.01;81.51
47861;HTU21D;33620;52.340;5.984;2023-05-24T05:39:10;11.08;81.63
47861;HTU21D;33620;52.340;5.984;2023-05-24T05:41:39;11.14;81.43
47861;HTU21D;33620;52.340;5.984;2023-05-24T05:44:08;11.24;80.78
47861;HTU21D;33620;52.340;5.984;2023-05-24T05:46:33;11.26;80.45
47861;HTU21D;33620;52.340;5.984;2023-05-24T05:48:58;11.31;80.72
47861;HTU21D;33620;52.340;5.984;2023-05-24T05:51:24;11.39;80.30
47861;HTU21D;33620;52.340;5.984;2023-05-24T05:53:49;11.42;79.90
47861;HTU21D;33620;52.340;5.984;2023-05-24T05:56:15;11.47;79.91
47861;HTU21D;33620;52.340;5.984;2023-05-24T05:58:40;11.51;79.99
47861;HTU21D;33620;52.340;5.984;2023-05-24T06:01:06;11.54;79.14
47861;HTU21D;33620;52.340;5.984;2023-05-24T06:03:31;11.53;78.97
47861;HTU21D;33620;52.340;5.984;2023-05-24T06:05:56;11.62;78.64
47861;HTU21D;33620;52.340;5.984;2023-05-24T06:08:22;11.63;78.05
47861;HTU21D;33620;52.340;5.984;2023-05-24T06:10:47;11.66;77.74
47861;HTU21D;33620;52.340;5.984;2023-05-24T06:13:13;11.72;76.95
47861;HTU21D;33620;52.340;5.984;2023-05-24T06:15:38;11.73;76.74
47861;HTU21D;33620;52.340;5.984;2023-05-24T06:18:04;11.77;76.79
47861;HTU21D;33620;52.340;5.984;2023-05-24T06:20:29;11.78;76.43
47861;HTU21D;33620;52.340;5.984;2023-05-24T06:22:55;11.84;75.73
47861;HTU21D;33620;52.340;5.984;2023-05-24T06:25:21;11.86;75.79
47861;HTU21D;33620;52.340;5.984;2023-05-24T06:27:51;11.94;75.38
47861;HTU21D;33620;52.340;5.984;2023-05-24T06:30:17;11.94;74.53
47861;HTU21D;33620;52.340;5.984;2023-05-24T06:32:42;11.97;73.99
47861;HTU21D;33620;52.340;5.984;2023-05-24T06:35:08;11.91;72.10
47861;HTU21D;33620;52.340;5.984;2023-05-24T06:37:34;11.93;72.41
47861;HTU21D;33620;52.340;5.984;2023-05-24T06:40:00;11.94;71.49
47861;HTU21D;33620;52.340;5.984;2023-05-24T06:42:25;11.98;71.96
47861;HTU21D;33620;52.340;5.984;2023-05-24T06:44:51;12.01;71.28
47861;HTU21D;33620;52.340;5.984;2023-05-24T06:47:16;12.07;71.22
47861;HTU21D;33620;52.340;5.984;2023-05-24T06:49:41;12.13;71.21
47861;HTU21D;33620;52.340;5.984;2023-05-24T06:52:07;12.22;71.39
47861;HTU21D;33620;52.340;5.984;2023-05-24T06:54:33;12.33;71.03
47861;HTU21D;33620;52.340;5.984;2023-05-24T06:56:58;12.40;70.34
47861;HTU21D;33620;52.340;5.984;2023-05-24T06:59:24;12.46;69.41
47861;HTU21D;33620;52.340;5.984;2023-05-24T07:01:49;12.51;69.02
47861;HTU21D;33620;52.340;5.984;2023-05-24T07:04:21;12.57;69.38
47861;HTU21D;33620;52.340;5.984;2023-05-24T07:06:46;12.62;69.58
47861;HTU21D;33620;52.340;5.984;2023-05-24T07:09:12;12.64;69.85
47861;HTU21D;33620;52.340;5.984;2023-05-24T07:11:39;12.69;70.62
47861;HTU21D;33620;52.340;5.984;2023-05-24T07:14:05;12.72;70.23
47861;HTU21D;33620;52.340;5.984;2023-05-24T07:16:30;12.74;69.81
47861;HTU21D;33620;52.340;5.984;2023-05-24T07:18:56;12.72;69.45
47861;HTU21D;33620;52.340;5.984;2023-05-24T07:21:22;12.78;69.93
47861;HTU21D;33620;52.340;5.984;2023-05-24T07:23:49;12.85;68.98
47861;HTU21D;33620;52.340;5.984;2023-05-24T07:26:15;12.91;69.32
47861;HTU21D;33620;52.340;5.984;2023-05-24T07:28:41;12.97;68.99
47861;HTU21D;33620;52.340;5.984;2023-05-24T07:31:08;12.95;68.54
47861;HTU21D;33620;52.340;5.984;2023-05-24T07:33:35;12.94;68.63
47861;HTU21D;33620;52.340;5.984;2023-05-24T07:36:02;12.99;68.74
47861;HTU21D;33620;52.340;5.984;2023-05-24T07:38:28;13.07;68.89
47861;HTU21D;33620;52.340;5.984;2023-05-24T07:40:54;13.09;68.66
47861;HTU21D;33620;52.340;5.984;2023-05-24T07:43:19;13.18;69.47
47861;HTU21D;33620;52.340;5.984;2023-05-24T07:45:44;13.25;68.77
47861;HTU21D;33620;52.340;5.984;2023-05-24T07:48:10;13.33;68.39
47861;HTU21D;33620;52.340;5.984;2023-05-24T07:50:35;13.36;67.61
47861;HTU21D;33620;52.340;5.984;2023-05-24T07:53:01;13.39;67.58
47861;HTU21D;33620;52.340;5.984;2023-05-24T07:55:26;13.47;67.89
47861;HTU21D;33620;52.340;5.984;2023-05-24T07:57:52;13.54;67.81
47861;HTU21D;33620;52.340;5.984;2023-05-24T08:00:18;13.65;67.00
47861;HTU21D;33620;52.340;5.984;2023-05-24T08:02:44;13.71;66.91
47861;HTU21D;33620;52.340;5.984;2023-05-24T08:05:11;13.76;66.14
47861;HTU21D;33620;52.340;5.984;2023-05-24T08:07:37;13.79;65.53
47861;HTU21D;33620;52.340;5.984;2023-05-24T08:10:03;13.78;66.03
47861;HTU21D;33620;52.340;5.984;2023-05-24T08:12:28;13.78;64.80
47861;HTU21D;33620;52.340;5.984;2023-05-24T08:14:55;13.80;64.94
47861;HTU21D;33620;52.340;5.984;2023-05-24T08:17:20;13.90;65.40
47861;HTU21D;33620;52.340;5.984;2023-05-24T08:19:46;13.99;64.95
47861;HTU21D;33620;52.340;5.984;2023-05-24T08:22:11;14.06;64.76
47861;HTU21D;33620;52.340;5.984;2023-05-24T08:24:37;14.05;64.34
47861;HTU21D;33620;52.340;5.984;2023-05-24T08:27:02;14.00;64.38
47861;HTU21D;33620;52.340;5.984;2023-05-24T08:29:28;14.01;65.02
47861;HTU21D;33620;52.340;5.984;2023-05-24T08:31:54;13.96;64.66
47861;HTU21D;33620;52.340;5.984;2023-05-24T08:34:20;13.96;64.50
47861;HTU21D;33620;52.340;5.984;2023-05-24T08:36:45;13.96;64.60
47861;HTU21D;33620;52.340;5.984;2023-05-24T08:39:11;14.00;64.95
47861;HTU21D;33620;52.340;5.984;2023-05-24T08:41:36;14.04;64.94
47861;HTU21D;33620;52.340;5.984;2023-05-24T08:44:04;14.05;64.21
47861;HTU21D;33620;52.340;5.984;2023-05-24T08:46:33;14.06;63.92
47861;HTU21D;33620;52.340;5.984;2023-05-24T08:48:59;14.05;64.15
47861;HTU21D;33620;52.340;5.984;2023-05-24T08:51:25;13.99;63.95
47861;HTU21D;33620;52.340;5.984;2023-05-24T08:53:52;13.89;63.84
47861;HTU21D;33620;52.340;5.984;2023-05-24T08:56:18;13.86;64.23
47861;HTU21D;33620;52.340;5.984;2023-05-24T08:58:44;13.84;64.51
47861;HTU21D;33620;52.340;5.984;2023-05-24T09:01:12;13.90;65.21
47861;HTU21D;33620;52.340;5.984;2023-05-24T09:03:39;13.90;64.35
47861;HTU21D;33620;52.340;5.984;2023-05-24T09:06:06;13.88;64.03
47861;HTU21D;33620;52.340;5.984;2023-05-24T09:08:33;13.88;64.36
47861;HTU21D;33620;52.340;5.984;2023-05-24T09:11:01;13.88;63.75
47861;HTU21D;33620;52.340;5.984;2023-05-24T09:13:27;13.92;64.43
47861;HTU21D;33620;52.340;5.984;2023-05-24T09:15:52;14.01;64.80
47861;HTU21D;33620;52.340;5.984;2023-05-24T09:18:18;14.08;63.69
47861;HTU21D;33620;52.340;5.984;2023-05-24T09:20:43;14.10;64.12
47861;HTU21D;33620;52.340;5.984;2023-05-24T09:23:09;14.15;64.39
47861;HTU21D;33620;52.340;5.984;2023-05-24T09:25:36;14.13;64.61
47861;HTU21D;33620;52.340;5.984;2023-05-24T09:28:06;14.20;64.97
47861;HTU21D;33620;52.340;5.984;2023-05-24T09:30:35;14.28;64.09
47861;HTU21D;33620;52.340;5.984;2023-05-24T09:33:01;14.32;64.13
47861;HTU21D;33620;52.340;5.984;2023-05-24T09:35:29;14.37;65.15
47861;HTU21D;33620;52.340;5.984;2023-05-24T09:37:58;14.45;64.80
47861;HTU21D;33620;52.340;5.984;2023-05-24T09:40:24;14.40;63.80
47861;HTU21D;33620;52.340;5.984;2023-05-24T09:43:04;14.39;63.89
47861;HTU21D;33620;52.340;5.984;2023-05-24T09:45:31;14.43;64.03
47861;HTU21D;33620;52.340;5.984;2023-05-24T09:47:57;14.54;64.87
47861;HTU21D;33620;52.340;5.984;2023-05-24T09:50:22;14.66;64.53
47861;HTU21D;33620;52.340;5.984;2023-05-24T09:52:48;14.77;64.41
47861;HTU21D;33620;52.340;5.984;2023-05-24T09:55:19;14.78;62.98
47861;HTU21D;33620;52.340;5.984;2023-05-24T09:58:07;14.79;63.20
47861;HTU21D;33620;52.340;5.984;2023-05-24T10:00:34;14.79;63.41
47861;HTU21D;33620;52.340;5.984;2023-05-24T10:03:03;14.78;62.47
47861;HTU21D;33620;52.340;5.984;2023-05-24T10:05:29;14.83;62.79
47861;HTU21D;33620;52.340;5.984;2023-05-24T10:07:56;14.75;62.18
47861;HTU21D;33620;52.340;5.984;2023-05-24T10:10:22;14.64;62.28
47861;HTU21D;33620;52.340;5.984;2023-05-24T10:12:48;14.62;63.27
47861;HTU21D;33620;52.340;5.984;2023-05-24T10:15:14;14.59;63.52
47861;HTU21D;33620;52.340;5.984;2023-05-24T10:17:39;14.67;63.27
47861;HTU21D;33620;52.340;5.984;2023-05-24T10:20:05;14.74;63.17
47861;HTU21D;33620;52.340;5.984;2023-05-24T10:22:32;14.87;62.59
47861;HTU21D;33620;52.340;5.984;2023-05-24T10:25:00;15.08;62.48
47861;HTU21D;33620;52.340;5.984;2023-05-24T10:27:29;15.23;62.21
47861;HTU21D;33620;52.340;5.984;2023-05-24T10:32:35;15.37;61.00
47861;HTU21D;33620;52.340;5.984;2023-05-24T10:35:03;15.32;60.09
47861;HTU21D;33620;52.340;5.984;2023-05-24T10:37:30;15.25;60.77
47861;HTU21D;33620;52.340;5.984;2023-05-24T10:39:57;15.39;60.87
47861;HTU21D;33620;52.340;5.984;2023-05-24T10:42:23;15.48;60.80
47861;HTU21D;33620;52.340;5.984;2023-05-24T10:44:48;15.51;59.93
47861;HTU21D;33620;52.340;5.984;2023-05-24T10:47:14;15.59;60.57
47861;HTU21D;33620;52.340;5.984;2023-05-24T10:49:48;15.65;59.99
47861;HTU21D;33620;52.340;5.984;2023-05-24T10:52:16;15.55;59.25
47861;HTU21D;33620;52.340;5.984;2023-05-24T10:57:26;15.49;60.96
47861;HTU21D;33620;52.340;5.984;2023-05-24T10:59:52;15.55;60.24
47861;HTU21D;33620;52.340;5.984;2023-05-24T11:02:21;15.58;60.45
47861;HTU21D;33620;52.340;5.984;2023-05-24T11:04:47;15.59;60.03
47861;HTU21D;33620;52.340;5.984;2023-05-24T11:07:14;15.56;59.16
47861;HTU21D;33620;52.340;5.984;2023-05-24T11:09:40;15.73;59.60
47861;HTU21D;33620;52.340;5.984;2023-05-24T11:12:16;15.84;58.67
47861;HTU21D;33620;52.340;5.984;2023-05-24T11:14:50;15.91;58.36
47861;HTU21D;33620;52.340;5.984;2023-05-24T11:17:19;15.97;57.89
47861;HTU21D;33620;52.340;5.984;2023-05-24T11:19:54;16.06;57.61
47861;HTU21D;33620;52.340;5.984;2023-05-24T11:22:21;16.11;57.84
47861;HTU21D;33620;52.340;5.984;2023-05-24T11:24:46;16.21;58.70
47861;HTU21D;33620;52.340;5.984;2023-05-24T11:27:13;16.33;57.81
47861;HTU21D;33620;52.340;5.984;2023-05-24T11:29:43;16.45;54.75
47861;HTU21D;33620;52.340;5.984;2023-05-24T11:32:09;16.44;56.07
47861;HTU21D;33620;52.340;5.984;2023-05-24T11:34:38;16.36;54.60
47861;HTU21D;33620;52.340;5.984;2023-05-24T11:37:04;16.29;55.90
47861;HTU21D;33620;52.340;5.984;2023-05-24T11:39:35;16.29;55.76
47861;HTU21D;33620;52.340;5.984;2023-05-24T11:42:04;16.36;56.21
47861;HTU21D;33620;52.340;5.984;2023-05-24T11:44:31;16.41;57.11
47861;HTU21D;33620;52.340;5.984;2023-05-24T11:47:00;16.40;55.86
47861;HTU21D;33620;52.340;5.984;2023-05-24T11:49:26;16.37;53.91
47861;HTU21D;33620;52.340;5.984;2023-05-24T11:51:56;16.44;55.26
47861;HTU21D;33620;52.340;5.984;2023-05-24T11:54:22;16.47;53.65
47861;HTU21D;33620;52.340;5.984;2023-05-24T11:56:48;16.54;54.17
47861;HTU21D;33620;52.340;5.984;2023-05-24T11:59:21;16.43;53.78
47861;HTU21D;33620;52.340;5.984;2023-05-24T12:01:47;16.48;55.61
47861;HTU21D;33620;52.340;5.984;2023-05-24T12:04:12;16.48;54.33
47861;HTU21D;33620;52.340;5.984;2023-05-24T12:06:40;16.50;53.84
47861;HTU21D;33620;52.340;5.984;2023-05-24T12:09:07;16.52;54.09
47861;HTU21D;33620;52.340;5.984;2023-05-24T12:11:37;16.59;54.00
47861;HTU21D;33620;52.340;5.984;2023-05-24T12:14:03;16.74;53.26
47861;HTU21D;33620;52.340;5.984;2023-05-24T12:16:29;16.89;53.07
47861;HTU21D;33620;52.340;5.984;2023-05-24T12:18:57;16.81;53.43
47861;HTU21D;33620;52.340;5.984;2023-05-24T12:21:22;16.67;53.18
47861;HTU21D;33620;52.340;5.984;2023-05-24T12:23:48;16.57;54.26
47861;HTU21D;33620;52.340;5.984;2023-05-24T12:26:13;16.57;53.86
47861;HTU21D;33620;52.340;5.984;2023-05-24T12:28:42;16.60;55.07
47861;HTU21D;33620;52.340;5.984;2023-05-24T12:31:08;16.47;54.12
47861;HTU21D;33620;52.340;5.984;2023-05-24T12:33:34;16.33;53.56
47861;HTU21D;33620;52.340;5.984;2023-05-24T12:36:00;16.27;54.77
47861;HTU21D;33620;52.340;5.984;2023-05-24T12:38:25;16.24;55.13
47861;HTU21D;33620;52.340;5.984;2023-05-24T12:40:51;16.17;54.94
47861;HTU21D;33620;52.340;5.984;2023-05-24T12:43:18;16.19;56.04
47861;HTU21D;33620;52.340;5.984;2023-05-24T12:45:44;16.24;55.71
47861;HTU21D;33620;52.340;5.984;2023-05-24T12:48:09;16.18;54.69
47861;HTU21D;33620;52.340;5.984;2023-05-24T12:50:34;16.12;54.54
47861;HTU21D;33620;52.340;5.984;2023-05-24T12:53:00;16.16;52.98
47861;HTU21D;33620;52.340;5.984;2023-05-24T12:55:26;16.33;53.63
47861;HTU21D;33620;52.340;5.984;2023-05-24T12:57:53;16.46;52.99
47861;HTU21D;33620;52.340;5.984;2023-05-24T13:00:21;16.47;52.62
47861;HTU21D;33620;52.340;5.984;2023-05-24T13:02:48;16.37;53.19
47861;HTU21D;33620;52.340;5.984;2023-05-24T13:05:13;16.29;54.01
47861;HTU21D;33620;52.340;5.984;2023-05-24T13:07:43;16.21;54.57
47861;HTU21D;33620;52.340;5.984;2023-05-24T13:10:09;16.05;54.81
47861;HTU21D;33620;52.340;5.984;2023-05-24T13:12:34;16.08;56.04
47861;HTU21D;33620;52.340;5.984;2023-05-24T13:15:01;16.12;55.72
47861;HTU21D;33620;52.340;5.984;2023-05-24T13:17:26;16.11;56.00
47861;HTU21D;33620;52.340;5.984;2023-05-24T13:19:52;16.06;56.40
47861;HTU21D;33620;52.340;5.984;2023-05-24T13:22:17;16.04;56.34
47861;HTU21D;33620;52.340;5.984;2023-05-24T13:24:44;16.01;56.31
47861;HTU21D;33620;52.340;5.984;2023-05-24T13:27:09;15.98;56.74
47861;HTU21D;33620;52.340;5.984;2023-05-24T13:29:35;16.00;57.35
47861;HTU21D;33620;52.340;5.984;2023-05-24T13:32:00;15.97;56.40
47861;HTU21D;33620;52.340;5.984;2023-05-24T13:34:26;15.90;56.17
47861;HTU21D;33620;52.340;5.984;2023-05-24T13:36:52;15.86;56.32
47861;HTU21D;33620;52.340;5.984;2023-05-24T13:39:19;15.85;56.48
47861;HTU21D;33620;52.340;5.984;2023-05-24T13:41:44;15.76;56.76
47861;HTU21D;33620;52.340;5.984;2023-05-24T13:44:11;15.69;57.64
47861;HTU21D;33620;52.340;5.984;2023-05-24T13:46:37;15.65;57.93
47861;HTU21D;33620;52.340;5.984;2023-05-24T13:49:03;15.61;58.04
47861;HTU21D;33620;52.340;5.984;2023-05-24T13:51:29;15.58;58.51
47861;HTU21D;33620;52.340;5.984;2023-05-24T13:53:54;15.61;58.65
47861;HTU21D;33620;52.340;5.984;2023-05-24T13:56:20;15.66;58.64
47861;HTU21D;33620;52.340;5.984;2023-05-24T13:58:48;15.66;58.64
47861;HTU21D;33620;52.340;5.984;2023-05-24T14:01:13;15.61;59.11
47861;HTU21D;33620;52.340;5.984;2023-05-24T14:03:38;15.56;59.10
47861;HTU21D;33620;52.340;5.984;2023-05-24T14:06:05;15.58;59.63
47861;HTU21D;33620;52.340;5.984;2023-05-24T14:08:32;15.68;59.77
47861;HTU21D;33620;52.340;5.984;2023-05-24T14:10:57;15.70;59.46
47861;HTU21D;33620;52.340;5.984;2023-05-24T14:13:22;15.74;59.16
47861;HTU21D;33620;52.340;5.984;2023-05-24T14:15:48;15.77;59.23
47861;HTU21D;33620;52.340;5.984;2023-05-24T14:18:14;15.83;59.16
47861;HTU21D;33620;52.340;5.984;2023-05-24T14:20:40;15.80;59.08
47861;HTU21D;33620;52.340;5.984;2023-05-24T14:23:06;15.77;58.97
47861;HTU21D;33620;52.340;5.984;2023-05-24T14:25:32;15.72;58.77
47861;HTU21D;33620;52.340;5.984;2023-05-24T14:27:58;15.59;58.47
47861;HTU21D;33620;52.340;5.984;2023-05-24T14:30:24;15.56;58.67
47861;HTU21D;33620;52.340;5.984;2023-05-24T14:32:50;15.56;58.99
47861;HTU21D;33620;52.340;5.984;2023-05-24T14:35:15;15.56;59.09
47861;HTU21D;33620;52.340;5.984;2023-05-24T14:37:41;15.56;58.37
47861;HTU21D;33620;52.340;5.984;2023-05-24T14:40:07;15.56;57.61
47861;HTU21D;33620;52.340;5.984;2023-05-24T14:42:32;15.58;57.16
47861;HTU21D;33620;52.340;5.984;2023-05-24T14:44:58;15.66;56.81
47861;HTU21D;33620;52.340;5.984;2023-05-24T14:47:23;15.73;57.09
47861;HTU21D;33620;52.340;5.984;2023-05-24T14:49:48;15.82;57.33
47861;HTU21D;33620;52.340;5.984;2023-05-24T14:52:14;15.82;56.26
47861;HTU21D;33620;52.340;5.984;2023-05-24T14:54:40;15.82;56.71
47861;HTU21D;33620;52.340;5.984;2023-05-24T14:57:05;15.84;56.55
47861;HTU21D;33620;52.340;5.984;2023-05-24T14:59:32;15.84;55.89
47861;HTU21D;33620;52.340;5.984;2023-05-24T15:01:57;15.86;56.42
47861;HTU21D;33620;52.340;5.984;2023-05-24T15:04:22;15.89;56.52
47861;HTU21D;33620;52.340;5.984;2023-05-24T15:06:48;15.89;57.84
47861;HTU21D;33620;52.340;5.984;2023-05-24T15:09:13;15.98;57.90
47861;HTU21D;33620;52.340;5.984;2023-05-24T15:11:38;15.96;55.96
47861;HTU21D;33620;52.340;5.984;2023-05-24T15:14:04;15.93;56.55
47861;HTU21D;33620;52.340;5.984;2023-05-24T15:16:29;15.98;56.71
47861;HTU21D;33620;52.340;5.984;2023-05-24T15:18:55;16.01;56.42
47861;HTU21D;33620;52.340;5.984;2023-05-24T15:21:20;16.03;56.42
47861;HTU21D;33620;52.340;5.984;2023-05-24T15:23:46;16.02;56.28
47861;HTU21D;33620;52.340;5.984;2023-05-24T15:26:11;16.02;56.03
47861;HTU21D;33620;52.340;5.984;2023-05-24T15:28:37;16.06;55.45
47861;HTU21D;33620;52.340;5.984;2023-05-24T15:31:02;16.11;55.91
47861;HTU21D;33620;52.340;5.984;2023-05-24T15:33:28;16.11;55.33
47861;HTU21D;33620;52.340;5.984;2023-05-24T15:35:54;16.11;55.78